Time;durP1;ratioP1;P1;durP2;ratioP2;P2;SDS_P1;SDS_P2;PMS_P1;PMS_P2;Temp;Humidity;BMP_temperature;BMP_pressure;BME280_temperature;BME280_humidity;BME280_pressure;Samples;Min_cycle;Max_cycle;Signal;HPM_P1;HPM_P2
2023/12/07 00:02:17;;;;;;;17.15;12.60;;;;;;;;;;5049407;28;20106;-78
2023/12/07 00:04:43;;;;;;;16.35;11.85;;;;;;;;;;5052814;28;20049;-78
2023/12/07 00:07:10;;;;;;;15.75;12.10;;;;;;;;;;5054460;28;20075;-78
2023/12/07 00:09:36;;;;;;;18.63;13.55;;;;;;;;;;5038364;28;20043;-78
2023/12/07 00:12:02;;;;;;;16.50;13.13;;;;;;;;;;5035163;28;20551;-78
2023/12/07 00:14:28;;;;;;;16.65;12.98;;;;;;;;;;5048128;28;20382;-79
2023/12/07 00:16:54;;;;;;;16.40;12.52;;;;;;;;;;5053160;28;20140;-78
2023/12/07 00:19:20;;;;;;;22.27;13.43;;;;;;;;;;5049445;28;20052;-78
2023/12/07 00:21:46;;;;;;;21.35;13.50;;;;;;;;;;5065029;28;20075;-77
2023/12/07 00:24:12;;;;;;;16.65;12.10;;;;;;;;;;5048527;28;20044;-77
2023/12/07 00:26:38;;;;;;;18.85;13.27;;;;;;;;;;5071283;28;20506;-78
2023/12/07 00:29:04;;;;;;;16.95;12.75;;;;;;;;;;5036875;28;20391;-78
2023/12/07 00:31:30;;;;;;;16.33;12.80;;;;;;;;;;5039547;28;20975;-78
2023/12/07 00:33:56;;;;;;;18.55;12.60;;;;;;;;;;5041231;28;20044;-78
2023/12/07 00:36:22;;;;;;;17.95;12.35;;;;;;;;;;5040109;28;20045;-78
2023/12/07 00:38:48;;;;;;;19.40;13.45;;;;;;;;;;5033453;28;20070;-79
2023/12/07 00:41:14;;;;;;;17.08;12.77;;;;;;;;;;5048321;28;20044;-78
2023/12/07 00:43:40;;;;;;;17.63;12.40;;;;;;;;;;5051090;28;20048;-76
2023/12/07 00:46:11;;;;;;;15.13;11.93;;;;;;;;;;5051142;28;20040;-77
2023/12/07 00:48:37;;;;;;;18.05;13.05;;;;;;;;;;5050899;28;20387;-78
2023/12/07 00:51:03;;;;;;;15.73;12.55;;;;;;;;;;5052548;28;20044;-78
2023/12/07 00:53:29;;;;;;;15.27;12.13;;;;;;;;;;5061299;28;20044;-78
2023/12/07 00:55:55;;;;;;;18.10;12.05;;;;;;;;;;5034777;28;20047;-77
2023/12/07 00:58:21;;;;;;;17.98;11.73;;;;;;;;;;5048359;28;20044;-79
2023/12/07 01:00:47;;;;;;;15.85;11.80;;;;;;;;;;5036631;28;20132;-79
2023/12/07 01:03:13;;;;;;;17.05;11.73;;;;;;;;;;5036345;28;20089;-79
2023/12/07 01:05:39;;;;;;;16.48;11.52;;;;;;;;;;5062605;28;20040;-80
2023/12/07 01:08:06;;;;;;;17.83;12.25;;;;;;;;;;5048310;28;20033;-78
2023/12/07 01:10:32;;;;;;;18.92;11.48;;;;;;;;;;5030241;28;20056;-76
2023/12/07 01:12:58;;;;;;;14.63;11.70;;;;;;;;;;5050284;28;20029;-75
2023/12/07 01:15:24;;;;;;;16.65;11.15;;;;;;;;;;5052427;28;20047;-76
2023/12/07 01:17:50;;;;;;;14.82;10.82;;;;;;;;;;5063112;28;20068;-74
2023/12/07 01:20:17;;;;;;;14.75;10.68;;;;;;;;;;5045583;28;20043;-80
2023/12/07 01:22:43;;;;;;;14.52;11.40;;;;;;;;;;5048012;28;20479;-79
2023/12/07 01:25:09;;;;;;;17.15;11.57;;;;;;;;;;5064848;28;20043;-80
2023/12/07 01:27:35;;;;;;;14.90;10.80;;;;;;;;;;5076255;28;20036;-80
2023/12/07 01:30:01;;;;;;;19.02;11.65;;;;;;;;;;5046651;28;20032;-79
2023/12/07 01:32:27;;;;;;;13.77;11.02;;;;;;;;;;5062367;28;20141;-79
2023/12/07 01:34:54;;;;;;;14.75;11.15;;;;;;;;;;5063278;28;20092;-80
2023/12/07 01:37:20;;;;;;;15.63;11.23;;;;;;;;;;5037709;28;20125;-78
2023/12/07 01:39:46;;;;;;;17.55;11.80;;;;;;;;;;5059974;28;20048;-79
2023/12/07 01:42:12;;;;;;;14.38;11.63;;;;;;;;;;5067555;28;20043;-80
2023/12/07 01:44:38;;;;;;;16.02;11.68;;;;;;;;;;5048586;28;20507;-79
2023/12/07 01:47:05;;;;;;;16.17;11.07;;;;;;;;;;5032788;28;20123;-79
2023/12/07 01:49:31;;;;;;;16.83;12.23;;;;;;;;;;5050665;28;20801;-79
2023/12/07 01:51:58;;;;;;;15.95;11.35;;;;;;;;;;5052322;28;20043;-78
2023/12/07 01:54:24;;;;;;;16.90;11.90;;;;;;;;;;5049165;28;20138;-79
2023/12/07 01:56:51;;;;;;;15.20;11.50;;;;;;;;;;5054010;28;20043;-79
2023/12/07 01:59:18;;;;;;;14.93;11.25;;;;;;;;;;5049670;28;20070;-77
2023/12/07 02:01:44;;;;;;;16.50;12.00;;;;;;;;;;5049549;28;20043;-78
2023/12/07 02:04:10;;;;;;;17.00;12.10;;;;;;;;;;5039760;28;20039;-78
2023/12/07 02:06:36;;;;;;;17.77;11.52;;;;;;;;;;5050583;28;20035;-78
2023/12/07 02:09:03;;;;;;;16.17;11.68;;;;;;;;;;5034408;28;20063;-78
2023/12/07 02:11:29;;;;;;;18.60;12.20;;;;;;;;;;5047334;28;20048;-78
2023/12/07 02:13:57;;;;;;;16.52;11.60;;;;;;;;;;5045601;28;20032;-77
2023/12/07 02:16:52;;;;;;;15.25;11.88;;;;;;;;;;5052425;28;20044;-77
2023/12/07 02:19:39;;;;;;;14.88;11.60;;;;;;;;;;4998552;28;20061;-77
2023/12/07 02:22:10;;;;;;;16.08;11.95;;;;;;;;;;5035929;28;20139;-77
2023/12/07 02:24:38;;;;;;;14.20;10.73;;;;;;;;;;5045938;28;20036;-77
2023/12/07 02:27:04;;;;;;;16.40;11.60;;;;;;;;;;5047290;28;20075;-78
2023/12/07 02:29:30;;;;;;;17.58;11.90;;;;;;;;;;5033920;28;20139;-77
2023/12/07 02:31:56;;;;;;;14.43;11.77;;;;;;;;;;5050434;28;20750;-78
2023/12/07 02:34:22;;;;;;;17.02;11.77;;;;;;;;;;5061681;28;20114;-78
2023/12/07 02:36:49;;;;;;;15.77;12.35;;;;;;;;;;5029076;28;20139;-78
2023/12/07 02:39:15;;;;;;;16.15;11.02;;;;;;;;;;5068614;28;20036;-78
2023/12/07 02:41:42;;;;;;;15.43;11.63;;;;;;;;;;5044578;28;20580;-78
2023/12/07 02:44:08;;;;;;;16.65;11.05;;;;;;;;;;5065060;28;20079;-77
2023/12/07 02:46:34;;;;;;;16.80;11.70;;;;;;;;;;5060393;28;20151;-78
2023/12/07 02:49:00;;;;;;;17.48;10.30;;;;;;;;;;5031598;28;20037;-77
2023/12/07 02:51:26;;;;;;;14.07;10.82;;;;;;;;;;5053210;28;20044;-78
2023/12/07 02:53:52;;;;;;;15.82;11.63;;;;;;;;;;5047931;28;20484;-78
2023/12/07 02:56:18;;;;;;;17.15;11.55;;;;;;;;;;5030833;28;20508;-78
2023/12/07 02:58:44;;;;;;;16.25;11.65;;;;;;;;;;5053416;28;20460;-78
2023/12/07 03:01:10;;;;;;;16.48;12.13;;;;;;;;;;5038381;28;20040;-77
2023/12/07 03:03:38;;;;;;;19.15;12.80;;;;;;;;;;5048229;28;21489;-78
2023/12/07 03:06:04;;;;;;;17.23;11.60;;;;;;;;;;5052113;28;20052;-78
2023/12/07 03:08:30;;;;;;;16.48;10.73;;;;;;;;;;5048801;28;20038;-78
2023/12/07 03:10:56;;;;;;;15.73;12.25;;;;;;;;;;5053970;28;20135;-77
2023/12/07 03:13:22;;;;;;;16.15;11.23;;;;;;;;;;5042315;28;20041;-78
2023/12/07 03:15:51;;;;;;;17.33;11.10;;;;;;;;;;5060259;28;20048;-78
2023/12/07 03:18:17;;;;;;;19.75;11.77;;;;;;;;;;5024205;28;20028;-78
2023/12/07 03:20:44;;;;;;;13.95;11.10;;;;;;;;;;5034618;28;20487;-78
2023/12/07 03:23:10;;;;;;;20.35;12.35;;;;;;;;;;5048138;28;20369;-78
2023/12/07 03:25:36;;;;;;;16.60;12.23;;;;;;;;;;5047221;28;20041;-78
2023/12/07 03:28:02;;;;;;;18.30;12.20;;;;;;;;;;5050600;28;20041;-78
2023/12/07 03:30:28;;;;;;;18.00;11.90;;;;;;;;;;5063789;28;20098;-78
2023/12/07 03:32:54;;;;;;;15.85;11.82;;;;;;;;;;5048385;28;20036;-78
2023/12/07 03:35:20;;;;;;;16.17;11.60;;;;;;;;;;5051276;28;20131;-77
2023/12/07 03:37:46;;;;;;;24.75;12.43;;;;;;;;;;5053622;28;20480;-78
2023/12/07 03:40:12;;;;;;;16.25;11.95;;;;;;;;;;5050670;28;20611;-77
2023/12/07 03:42:39;;;;;;;17.52;12.10;;;;;;;;;;5048553;28;20120;-75
2023/12/07 03:45:05;;;;;;;22.45;12.90;;;;;;;;;;5055020;28;20123;-77
2023/12/07 03:47:31;;;;;;;18.20;11.98;;;;;;;;;;5050451;28;21039;-75
2023/12/07 03:49:57;;;;;;;18.85;11.30;;;;;;;;;;5067180;28;20040;-77
2023/12/07 03:52:23;;;;;;;15.10;11.70;;;;;;;;;;5036512;28;20056;-77
2023/12/07 03:54:49;;;;;;;13.93;11.13;;;;;;;;;;5064449;28;20087;-77
2023/12/07 03:57:15;;;;;;;17.90;12.10;;;;;;;;;;5032539;28;20040;-77
2023/12/07 03:59:42;;;;;;;16.75;11.68;;;;;;;;;;5078696;28;20388;-76
2023/12/07 04:02:08;;;;;;;16.60;11.85;;;;;;;;;;5038219;28;20101;-77
2023/12/07 04:04:35;;;;;;;16.40;11.80;;;;;;;;;;5049867;28;20051;-77
2023/12/07 04:07:01;;;;;;;16.05;11.73;;;;;;;;;;5065152;28;20037;-77
2023/12/07 04:09:27;;;;;;;16.23;11.25;;;;;;;;;;5078642;28;20047;-78
2023/12/07 04:11:53;;;;;;;14.35;11.45;;;;;;;;;;5069541;28;20062;-77
2023/12/07 04:14:19;;;;;;;17.55;11.80;;;;;;;;;;5039578;28;20068;-77
2023/12/07 04:16:45;;;;;;;15.23;11.35;;;;;;;;;;5034753;28;20098;-78
2023/12/07 04:19:11;;;;;;;16.88;11.75;;;;;;;;;;5051530;28;20330;-78
2023/12/07 04:21:37;;;;;;;14.90;10.75;;;;;;;;;;5054101;28;20399;-75
2023/12/07 04:24:04;;;;;;;18.00;11.25;;;;;;;;;;5037325;28;20066;-75
2023/12/07 04:26:30;;;;;;;14.85;11.60;;;;;;;;;;5065755;28;20450;-76
2023/12/07 04:28:56;;;;;;;18.67;13.35;;;;;;;;;;5055670;28;20127;-75
2023/12/07 04:31:22;;;;;;;21.38;11.15;;;;;;;;;;5080650;28;20035;-79
2023/12/07 04:33:48;;;;;;;16.88;11.15;;;;;;;;;;5046676;28;20805;-79
2023/12/07 04:36:14;;;;;;;15.52;11.32;;;;;;;;;;5049214;28;20743;-80
2023/12/07 04:38:40;;;;;;;18.30;11.02;;;;;;;;;;5048029;28;20052;-80
2023/12/07 04:41:06;;;;;;;14.43;10.75;;;;;;;;;;5033307;28;20042;-79
2023/12/07 04:43:33;;;;;;;18.58;11.85;;;;;;;;;;5066140;28;20052;-79
2023/12/07 04:45:59;;;;;;;15.35;10.43;;;;;;;;;;5055617;28;20041;-79
2023/12/07 04:48:25;;;;;;;19.15;12.02;;;;;;;;;;5033140;28;20045;-80
2023/12/07 04:50:52;;;;;;;16.65;12.63;;;;;;;;;;5034743;28;20040;-79
2023/12/07 04:53:18;;;;;;;18.27;13.23;;;;;;;;;;5053197;28;20098;-79
2023/12/07 04:55:48;;;;;;;16.75;12.70;;;;;;;;;;5055848;28;20044;-79
2023/12/07 04:58:15;;;;;;;16.20;11.18;;;;;;;;;;5036552;28;20056;-79
2023/12/07 05:00:41;;;;;;;15.80;11.38;;;;;;;;;;5036577;28;20063;-79
2023/12/07 05:03:08;;;;;;;15.25;11.23;;;;;;;;;;5045124;28;20070;-79
2023/12/07 05:05:34;;;;;;;14.45;11.30;;;;;;;;;;5034285;28;20759;-79
2023/12/07 05:08:00;;;;;;;14.80;10.00;;;;;;;;;;5036614;28;20033;-79
2023/12/07 05:10:26;;;;;;;16.80;11.18;;;;;;;;;;5061074;28;20036;-79
2023/12/07 05:12:52;;;;;;;17.75;11.45;;;;;;;;;;5046345;28;20056;-79
2023/12/07 05:15:18;;;;;;;19.38;11.38;;;;;;;;;;5012070;28;20086;-79
2023/12/07 05:17:44;;;;;;;16.83;12.25;;;;;;;;;;5046105;28;20109;-79
2023/12/07 05:20:12;;;;;;;15.55;11.88;;;;;;;;;;5045093;28;20041;-78
2023/12/07 05:22:38;;;;;;;20.10;10.88;;;;;;;;;;5079210;28;20083;-79
2023/12/07 05:25:04;;;;;;;14.88;11.07;;;;;;;;;;5058884;28;20093;-79
2023/12/07 05:27:31;;;;;;;18.17;11.63;;;;;;;;;;5044735;28;20071;-79
2023/12/07 05:29:57;;;;;;;16.67;11.07;;;;;;;;;;5049142;28;20488;-74
2023/12/07 05:32:23;;;;;;;15.48;11.40;;;;;;;;;;5053478;28;20523;-76
2023/12/07 05:34:50;;;;;;;14.73;11.43;;;;;;;;;;5066260;28;20097;-76
2023/12/07 05:37:16;;;;;;;14.80;11.70;;;;;;;;;;5064568;28;20468;-77
2023/12/07 05:39:42;;;;;;;18.88;12.30;;;;;;;;;;5042630;28;20076;-77
2023/12/07 05:42:08;;;;;;;19.27;10.98;;;;;;;;;;5043807;28;20047;-77
2023/12/07 05:44:34;;;;;;;14.80;10.93;;;;;;;;;;5078418;28;20072;-77
2023/12/07 05:47:00;;;;;;;18.58;11.82;;;;;;;;;;5050957;28;20476;-77
2023/12/07 05:49:27;;;;;;;17.85;11.85;;;;;;;;;;5061668;28;20037;-77
2023/12/07 05:51:53;;;;;;;21.60;12.50;;;;;;;;;;5051169;28;20186;-76
2023/12/07 05:54:22;;;;;;;16.88;11.77;;;;;;;;;;5016228;28;20080;-77
2023/12/07 05:56:48;;;;;;;17.10;11.85;;;;;;;;;;5047575;28;20135;-76
2023/12/07 05:59:14;;;;;;;15.25;11.85;;;;;;;;;;5059464;28;20070;-77
2023/12/07 06:01:40;;;;;;;15.52;11.07;;;;;;;;;;5051046;28;20051;-77
2023/12/07 06:04:09;;;;;;;16.13;11.57;;;;;;;;;;5067844;28;20033;-77
2023/12/07 06:06:35;;;;;;;20.55;12.18;;;;;;;;;;5064990;28;20393;-77
2023/12/07 06:09:01;;;;;;;17.02;11.93;;;;;;;;;;5049223;28;20578;-77
2023/12/07 06:11:27;;;;;;;17.85;12.15;;;;;;;;;;5068113;28;20028;-78
2023/12/07 06:13:54;;;;;;;18.80;11.65;;;;;;;;;;5022964;28;20047;-78
2023/12/07 06:16:20;;;;;;;17.95;12.68;;;;;;;;;;5060747;28;20524;-78
2023/12/07 06:18:46;;;;;;;17.67;11.55;;;;;;;;;;5052141;28;20039;-77
2023/12/07 06:21:14;;;;;;;16.65;11.77;;;;;;;;;;5065176;28;20040;-77
2023/12/07 06:23:41;;;;;;;15.93;11.13;;;;;;;;;;5067151;28;20036;-77
2023/12/07 06:26:07;;;;;;;17.33;11.32;;;;;;;;;;5041501;28;20144;-77
2023/12/07 06:28:33;;;;;;;16.15;10.27;;;;;;;;;;5036038;28;20048;-78
2023/12/07 06:31:06;;;;;;;17.92;11.20;;;;;;;;;;5038684;28;20044;-77
2023/12/07 06:33:32;;;;;;;17.05;11.50;;;;;;;;;;5050515;28;20056;-78
2023/12/07 06:35:58;;;;;;;15.77;10.85;;;;;;;;;;5064514;28;20090;-77
2023/12/07 06:38:24;;;;;;;17.05;10.68;;;;;;;;;;5055879;28;20071;-77
2023/12/07 06:40:50;;;;;;;14.82;11.20;;;;;;;;;;5051816;28;20043;-78
2023/12/07 06:43:16;;;;;;;13.73;11.00;;;;;;;;;;5048322;28;20052;-78
2023/12/07 06:45:42;;;;;;;15.82;10.80;;;;;;;;;;5063497;28;21871;-78
2023/12/07 06:48:09;;;;;;;14.05;10.90;;;;;;;;;;5052298;28;20045;-78
2023/12/07 06:50:35;;;;;;;16.88;11.40;;;;;;;;;;5018332;28;20038;-78
2023/12/07 06:53:01;;;;;;;14.07;10.95;;;;;;;;;;5046770;28;20028;-78
2023/12/07 06:55:27;;;;;;;15.18;10.23;;;;;;;;;;5041083;28;20036;-78
2023/12/07 06:57:53;;;;;;;16.80;10.77;;;;;;;;;;5052122;28;20070;-77
2023/12/07 07:00:20;;;;;;;16.83;10.20;;;;;;;;;;5038335;28;20459;-78
2023/12/07 07:02:46;;;;;;;16.38;10.55;;;;;;;;;;5068156;28;20040;-78
2023/12/07 07:05:12;;;;;;;17.58;11.98;;;;;;;;;;5049084;28;20075;-77
2023/12/07 07:07:38;;;;;;;16.83;10.13;;;;;;;;;;5073217;28;20044;-78
2023/12/07 07:10:05;;;;;;;14.05;10.38;;;;;;;;;;5036330;28;20039;-80
2023/12/07 07:12:31;;;;;;;15.82;11.50;;;;;;;;;;5052950;28;20051;-78
2023/12/07 07:14:57;;;;;;;16.95;10.70;;;;;;;;;;5053739;28;20484;-77
2023/12/07 07:17:23;;;;;;;16.23;11.15;;;;;;;;;;5054423;28;20067;-78
2023/12/07 07:19:49;;;;;;;16.35;12.30;;;;;;;;;;5075650;28;20502;-77
2023/12/07 07:22:15;;;;;;;20.10;11.00;;;;;;;;;;5056278;28;20499;-77
2023/12/07 07:24:41;;;;;;;20.45;11.52;;;;;;;;;;5025281;28;20040;-77
2023/12/07 07:27:07;;;;;;;13.20;10.45;;;;;;;;;;5048895;28;20045;-77
2023/12/07 07:29:33;;;;;;;19.15;11.23;;;;;;;;;;5034337;28;20408;-76
2023/12/07 07:32:00;;;;;;;18.13;11.15;;;;;;;;;;5053495;28;20488;-78
2023/12/07 07:34:26;;;;;;;16.73;12.15;;;;;;;;;;5019592;28;20040;-79
2023/12/07 07:36:52;;;;;;;17.58;11.45;;;;;;;;;;5031610;28;20080;-87
2023/12/07 07:39:18;;;;;;;19.83;12.07;;;;;;;;;;5070875;28;20565;-87
2023/12/07 07:41:44;;;;;;;18.15;11.73;;;;;;;;;;5033156;28;20079;-86
2023/12/07 07:44:10;;;;;;;17.23;11.57;;;;;;;;;;5052666;28;20041;-86
2023/12/07 07:46:36;;;;;;;18.73;12.27;;;;;;;;;;5053460;28;20041;-87
2023/12/07 07:49:03;;;;;;;16.40;11.90;;;;;;;;;;5029003;28;20396;-86
2023/12/07 07:51:31;;;;;;;17.23;11.80;;;;;;;;;;5032517;28;20065;-86
2023/12/07 07:53:57;;;;;;;17.48;11.52;;;;;;;;;;5051714;28;20420;-84
2023/12/07 07:56:24;;;;;;;17.90;12.05;;;;;;;;;;5054887;28;20449;-86
2023/12/07 07:58:50;;;;;;;19.83;12.05;;;;;;;;;;5051792;28;20090;-86
2023/12/07 08:01:17;;;;;;;19.38;11.43;;;;;;;;;;5048782;28;20038;-85
2023/12/07 08:03:43;;;;;;;19.98;12.80;;;;;;;;;;5046837;28;20093;-76
2023/12/07 08:06:09;;;;;;;18.02;13.05;;;;;;;;;;5032904;28;20041;-77
2023/12/07 08:08:35;;;;;;;18.15;13.13;;;;;;;;;;5045869;28;20084;-77
2023/12/07 08:11:01;;;;;;;18.05;12.15;;;;;;;;;;5018278;28;20153;-76
2023/12/07 08:13:27;;;;;;;19.27;12.38;;;;;;;;;;5047965;28;20167;-78
2023/12/07 08:15:54;;;;;;;16.08;11.98;;;;;;;;;;5055487;28;20037;-78
2023/12/07 08:18:20;;;;;;;18.25;13.02;;;;;;;;;;5048502;28;20424;-77
2023/12/07 08:20:50;;;;;;;17.35;12.07;;;;;;;;;;5045669;28;20045;-85
2023/12/07 08:23:16;;;;;;;16.83;11.82;;;;;;;;;;5034712;28;20072;-86
2023/12/07 08:25:45;;;;;;;17.80;11.75;;;;;;;;;;5032065;28;20056;-85
2023/12/07 08:28:11;;;;;;;19.80;11.95;;;;;;;;;;5038877;28;20171;-85
2023/12/07 08:30:37;;;;;;;20.25;11.75;;;;;;;;;;5044571;28;20083;-84
2023/12/07 08:33:03;;;;;;;15.65;11.68;;;;;;;;;;5045077;28;20427;-84
2023/12/07 08:35:29;;;;;;;16.00;11.15;;;;;;;;;;5040820;28;20040;-84
2023/12/07 08:37:55;;;;;;;17.38;12.23;;;;;;;;;;5035330;28;20705;-84
2023/12/07 08:40:21;;;;;;;16.80;11.40;;;;;;;;;;5048765;28;20068;-85
2023/12/07 08:42:48;;;;;;;15.68;11.18;;;;;;;;;;5049090;28;20044;-84
2023/12/07 08:45:14;;;;;;;20.17;11.32;;;;;;;;;;5032969;28;20059;-83
2023/12/07 08:47:41;;;;;;;17.85;12.60;;;;;;;;;;5036466;28;20072;-83
2023/12/07 08:50:08;;;;;;;17.85;12.57;;;;;;;;;;5039415;28;20041;-85
2023/12/07 08:52:34;;;;;;;15.75;11.52;;;;;;;;;;5036728;28;20041;-85
2023/12/07 08:55:00;;;;;;;17.70;12.27;;;;;;;;;;5019813;28;20116;-85
2023/12/07 08:57:26;;;;;;;18.92;11.48;;;;;;;;;;5046726;28;20033;-85
2023/12/07 08:59:54;;;;;;;18.65;12.25;;;;;;;;;;5051010;28;20077;-85
2023/12/07 09:02:20;;;;;;;17.48;12.48;;;;;;;;;;5050918;28;20059;-88
2023/12/07 09:04:46;;;;;;;16.58;11.30;;;;;;;;;;5031356;28;20128;-88
2023/12/07 09:07:15;;;;;;;16.55;11.57;;;;;;;;;;5034512;28;20041;-90
2023/12/07 09:09:46;;;;;;;19.20;12.63;;;;;;;;;;5058075;28;20103;-89
2023/12/07 09:12:14;;;;;;;16.90;12.30;;;;;;;;;;5019971;28;20499;-86
2023/12/07 09:14:40;;;;;;;18.08;12.18;;;;;;;;;;5053679;28;20037;-86
2023/12/07 09:17:06;;;;;;;16.58;11.40;;;;;;;;;;5056531;28;20484;-87
2023/12/07 09:19:32;;;;;;;17.85;11.35;;;;;;;;;;5030141;28;20124;-86
2023/12/07 09:22:01;;;;;;;18.65;11.82;;;;;;;;;;5038348;28;20033;-86
2023/12/07 09:24:27;;;;;;;18.77;12.35;;;;;;;;;;5053242;28;20389;-86
2023/12/07 09:26:53;;;;;;;19.70;12.15;;;;;;;;;;5053531;28;20138;-85
2023/12/07 09:29:19;;;;;;;17.73;12.85;;;;;;;;;;5037823;28;20468;-85
2023/12/07 09:31:45;;;;;;;17.60;11.95;;;;;;;;;;5036320;28;20113;-85
2023/12/07 09:34:17;;;;;;;15.93;11.88;;;;;;;;;;5039508;28;20040;-86
2023/12/07 09:36:43;;;;;;;17.25;11.63;;;;;;;;;;5031092;28;20594;-85
2023/12/07 09:39:10;;;;;;;18.80;12.10;;;;;;;;;;5048901;28;20049;-85
2023/12/07 09:41:37;;;;;;;15.50;11.93;;;;;;;;;;5039107;28;20053;-86
2023/12/07 09:44:03;;;;;;;18.20;12.30;;;;;;;;;;5048543;28;20110;-84
2023/12/07 09:46:30;;;;;;;17.15;12.32;;;;;;;;;;5055931;28;20392;-84
2023/12/07 09:48:56;;;;;;;15.80;10.80;;;;;;;;;;5031881;28;20044;-85
2023/12/07 09:51:23;;;;;;;15.52;10.82;;;;;;;;;;5043402;28;20136;-85
2023/12/07 09:53:49;;;;;;;16.70;11.20;;;;;;;;;;5050646;28;20063;-85
2023/12/07 09:56:15;;;;;;;19.92;12.52;;;;;;;;;;5038731;28;20128;-86
2023/12/07 09:58:42;;;;;;;17.08;12.30;;;;;;;;;;5049054;28;20040;-87
2023/12/07 10:01:09;;;;;;;16.98;11.73;;;;;;;;;;5048409;28;20036;-86
2023/12/07 10:03:35;;;;;;;16.27;11.77;;;;;;;;;;5035514;28;20048;-85
2023/12/07 10:06:01;;;;;;;17.15;12.02;;;;;;;;;;5033321;28;20036;-87
2023/12/07 10:08:28;;;;;;;18.20;12.23;;;;;;;;;;5055273;28;20059;-87
2023/12/07 10:11:02;;;;;;;18.35;12.40;;;;;;;;;;5036115;28;20037;-86
2023/12/07 10:13:29;;;;;;;18.80;12.07;;;;;;;;;;5033571;28;20408;-86
2023/12/07 10:16:22;;;;;;;16.50;11.93;;;;;;;;;;5032310;28;20047;-85
2023/12/07 10:18:49;;;;;;;19.73;10.90;;;;;;;;;;5067105;28;20052;-86
2023/12/07 10:21:16;;;;;;;19.77;10.50;;;;;;;;;;5037454;28;20040;-88
2023/12/07 10:23:47;;;;;;;13.50;10.13;;;;;;;;;;5054605;28;20052;-90
2023/12/07 10:26:14;;;;;;;13.52;9.98;;;;;;;;;;5038771;28;20470;-90
2023/12/07 10:28:40;;;;;;;15.05;9.88;;;;;;;;;;5055349;28;20119;-93
2023/12/07 10:31:10;;;;;;;13.45;8.00;;;;;;;;;;5018765;28;20477;-84
2023/12/07 10:33:36;;;;;;;14.32;9.02;;;;;;;;;;5050928;28;20040;-86
2023/12/07 10:36:04;;;;;;;11.88;8.93;;;;;;;;;;5053880;28;20109;-85
2023/12/07 10:38:32;;;;;;;13.45;10.43;;;;;;;;;;5053283;28;20050;-83
2023/12/07 10:41:08;;;;;;;10.82;9.10;;;;;;;;;;5046638;28;20045;-84
2023/12/07 10:43:37;;;;;;;12.77;9.68;;;;;;;;;;5047649;28;20065;-84
2023/12/07 10:46:05;;;;;;;12.60;10.57;;;;;;;;;;5042940;28;20049;-85
2023/12/07 10:48:33;;;;;;;11.77;9.88;;;;;;;;;;5052207;28;20053;-85
2023/12/07 10:51:00;;;;;;;16.30;11.10;;;;;;;;;;5032389;28;20159;-85
2023/12/07 10:53:33;;;;;;;14.48;11.73;;;;;;;;;;5054166;28;20029;-84
2023/12/07 10:56:01;;;;;;;15.27;11.77;;;;;;;;;;5048586;28;20451;-84
2023/12/07 10:58:27;;;;;;;15.90;12.70;;;;;;;;;;5039107;28;20494;-85
2023/12/07 11:00:54;;;;;;;18.13;12.93;;;;;;;;;;5038427;28;20040;-86
2023/12/07 11:03:21;;;;;;;16.10;12.77;;;;;;;;;;5046680;28;20053;-86
2023/12/07 11:05:48;;;;;;;19.48;12.68;;;;;;;;;;5032677;28;20045;-84
2023/12/07 11:08:17;;;;;;;19.27;14.13;;;;;;;;;;5017264;28;20126;-85
2023/12/07 11:10:51;;;;;;;19.85;14.57;;;;;;;;;;5048548;28;20068;-85
2023/12/07 11:13:19;;;;;;;20.92;15.70;;;;;;;;;;5049266;28;20381;-84
2023/12/07 11:15:45;;;;;;;19.67;14.55;;;;;;;;;;5052705;28;20041;-84
2023/12/07 11:18:14;;;;;;;18.67;13.68;;;;;;;;;;5051780;28;20032;-88
2023/12/07 11:20:47;;;;;;;22.45;13.57;;;;;;;;;;5053713;28;20127;-86
2023/12/07 11:23:18;;;;;;;18.10;14.95;;;;;;;;;;5048660;28;20041;-86
2023/12/07 11:25:45;;;;;;;18.00;13.85;;;;;;;;;;5050198;28;20048;-85
2023/12/07 11:28:12;;;;;;;19.48;14.98;;;;;;;;;;5039652;28;20115;-85
2023/12/07 11:30:40;;;;;;;16.50;13.85;;;;;;;;;;5048549;28;20037;-86
2023/12/07 11:33:07;;;;;;;17.00;13.27;;;;;;;;;;5039675;28;20060;-83
2023/12/07 11:35:34;;;;;;;21.70;15.40;;;;;;;;;;5038199;28;20041;-82
2023/12/07 11:38:06;;;;;;;18.88;13.85;;;;;;;;;;5035788;28;20419;-82
2023/12/07 11:40:32;;;;;;;20.50;13.75;;;;;;;;;;5038787;28;20066;-82
2023/12/07 11:43:04;;;;;;;21.85;13.90;;;;;;;;;;5056082;28;20037;-85
2023/12/07 11:45:37;;;;;;;18.70;13.07;;;;;;;;;;5060716;28;20597;-83
2023/12/07 11:48:11;;;;;;;17.05;13.32;;;;;;;;;;5056044;28;20345;-83
2023/12/07 11:50:37;;;;;;;16.33;12.88;;;;;;;;;;5072244;28;20036;-83
2023/12/07 11:53:03;;;;;;;17.52;13.30;;;;;;;;;;5044511;28;20066;-82
2023/12/07 11:55:29;;;;;;;17.08;12.13;;;;;;;;;;5057693;28;20360;-83
2023/12/07 11:57:55;;;;;;;15.07;12.65;;;;;;;;;;5074072;28;20094;-84
2023/12/07 12:00:21;;;;;;;16.83;12.25;;;;;;;;;;5070763;28;20143;-83
2023/12/07 12:02:51;;;;;;;19.52;13.13;;;;;;;;;;5062916;28;20431;-82
2023/12/07 12:05:17;;;;;;;14.60;12.43;;;;;;;;;;5054104;28;20463;-83
2023/12/07 12:07:43;;;;;;;15.32;12.23;;;;;;;;;;5059249;28;20043;-83
2023/12/07 12:10:09;;;;;;;18.98;12.40;;;;;;;;;;5073823;28;20076;-83
2023/12/07 12:12:35;;;;;;;17.13;12.25;;;;;;;;;;5058358;28;20051;-82
2023/12/07 12:15:01;;;;;;;17.50;11.93;;;;;;;;;;5061709;28;20518;-83
2023/12/07 12:17:27;;;;;;;18.95;13.73;;;;;;;;;;5055459;28;20045;-81
2023/12/07 12:19:54;;;;;;;17.90;13.27;;;;;;;;;;5028046;28;20063;-82
2023/12/07 12:22:20;;;;;;;18.55;13.55;;;;;;;;;;5056973;28;20447;-83
2023/12/07 12:24:47;;;;;;;17.08;13.15;;;;;;;;;;5043169;28;20051;-84
2023/12/07 12:27:14;;;;;;;18.25;12.98;;;;;;;;;;5070904;28;20456;-81
2023/12/07 12:29:40;;;;;;;15.18;12.60;;;;;;;;;;5058022;28;20073;-82
2023/12/07 12:32:06;;;;;;;15.93;13.32;;;;;;;;;;5058280;28;20480;-80
2023/12/07 12:34:35;;;;;;;18.30;14.18;;;;;;;;;;5057882;28;20044;-83
2023/12/07 12:37:02;;;;;;;19.10;14.50;;;;;;;;;;5038704;28;20068;-81
2023/12/07 12:39:31;;;;;;;15.88;13.20;;;;;;;;;;5042550;28;20052;-79
2023/12/07 12:41:59;;;;;;;21.48;13.88;;;;;;;;;;5077203;28;20123;-81
2023/12/07 12:44:25;;;;;;;17.13;13.85;;;;;;;;;;5061378;28;20060;-86
2023/12/07 12:46:51;;;;;;;18.27;14.70;;;;;;;;;;5060527;28;20044;-88
2023/12/07 12:49:17;;;;;;;18.77;13.55;;;;;;;;;;5041296;28;20052;-84
2023/12/07 12:51:44;;;;;;;21.10;15.23;;;;;;;;;;5068296;28;20041;-85
2023/12/07 12:54:11;;;;;;;19.40;14.35;;;;;;;;;;5069926;28;20051;-84
2023/12/07 12:56:37;;;;;;;19.95;15.13;;;;;;;;;;5044884;28;20466;-87
2023/12/07 12:59:03;;;;;;;18.85;15.38;;;;;;;;;;5057282;28;20045;-86
2023/12/07 13:01:29;;;;;;;24.02;17.05;;;;;;;;;;5058505;28;20031;-88
2023/12/07 13:03:57;;;;;;;22.83;16.70;;;;;;;;;;5026220;28;20048;-85
2023/12/07 13:06:24;;;;;;;26.83;18.00;;;;;;;;;;5034945;28;20051;-86
2023/12/07 13:08:51;;;;;;;24.48;16.42;;;;;;;;;;5044612;28;20059;-85
2023/12/07 13:11:18;;;;;;;21.35;15.85;;;;;;;;;;5049886;28;20115;-85
2023/12/07 13:13:44;;;;;;;25.33;19.70;;;;;;;;;;5059714;28;20549;-86
2023/12/07 13:16:14;;;;;;;32.45;19.83;;;;;;;;;;5037208;28;20486;-85
2023/12/07 13:18:41;;;;;;;67.95;21.70;;;;;;;;;;5074104;28;20044;-86
2023/12/07 13:21:09;;;;;;;50.42;22.95;;;;;;;;;;5057712;28;20051;-86
2023/12/07 13:23:36;;;;;;;47.78;20.70;;;;;;;;;;5060077;28;20051;-84
2023/12/07 13:26:02;;;;;;;157.07;23.02;;;;;;;;;;5055303;28;20051;-84
2023/12/07 13:28:28;;;;;;;125.68;22.02;;;;;;;;;;5044252;28;20049;-85
2023/12/07 13:30:55;;;;;;;135.10;23.77;;;;;;;;;;5042957;28;20032;-85
2023/12/07 13:33:22;;;;;;;110.28;25.23;;;;;;;;;;5055281;28;20029;-85
2023/12/07 13:35:49;;;;;;;59.33;24.98;;;;;;;;;;5057744;28;20372;-85
2023/12/07 13:38:15;;;;;;;63.30;25.02;;;;;;;;;;5024479;28;20028;-86
2023/12/07 13:40:41;;;;;;;70.50;27.60;;;;;;;;;;5061065;28;20312;-86
2023/12/07 13:43:09;;;;;;;57.03;23.30;;;;;;;;;;5051633;28;20029;-82
2023/12/07 13:45:35;;;;;;;129.80;22.88;;;;;;;;;;5036575;28;20071;-81
2023/12/07 13:48:01;;;;;;;84.13;24.63;;;;;;;;;;5056459;28;20059;-81
2023/12/07 13:50:27;;;;;;;71.85;26.17;;;;;;;;;;5055893;28;20036;-82
2023/12/07 13:52:53;;;;;;;83.95;24.30;;;;;;;;;;5055296;28;20044;-80
2023/12/07 13:55:19;;;;;;;115.57;24.30;;;;;;;;;;5049970;28;20045;-80
2023/12/07 13:57:48;;;;;;;124.05;26.77;;;;;;;;;;5060641;28;20040;-80
2023/12/07 14:00:14;;;;;;;73.47;24.52;;;;;;;;;;5042615;28;20043;-80
2023/12/07 14:02:41;;;;;;;169.00;25.92;;;;;;;;;;5072038;28;20045;-79
2023/12/07 14:05:07;;;;;;;96.40;25.65;;;;;;;;;;5048573;28;20093;-80
2023/12/07 14:07:34;;;;;;;70.97;22.48;;;;;;;;;;5044151;28;20031;-78
2023/12/07 14:10:00;;;;;;;128.32;23.30;;;;;;;;;;5040833;28;20044;-80
2023/12/07 14:12:26;;;;;;;99.03;21.40;;;;;;;;;;5074854;28;20101;-78
2023/12/07 14:14:55;;;;;;;119.88;23.95;;;;;;;;;;5062622;28;20093;-78